HOURLY OBS INDEX

095

Derwent Valley

BUSHY PARK (BUSHY PARK ESTATES)

Site: 095003
Alt: 27.0m
15km WNW of NEW NORFOLK


  Time     Wind        Temp  DP   Baro     Rain since   Rain past  Vis(m), Cloud(base in m), Weather
  local        km/h                         9am  last   hr   10m    
Sun 11:00   SW 19/ 30  15.3  7.5  ------    0.0   0.0   0.0   0.0   ----- 
Sun 11:30    W 17/ 24  18.4  7.4  ------    0.0   0.0   0.0   0.0   ----- 
Sun 12:00   SW 24/ 37  17.3  5.9  ------    0.0   0.0   0.0   0.0   ----- 
Sun 12:30   SW 30/ 46  17.2  6.3  ------    0.0   0.0   0.0   0.0   ----- 
Sun 12:39   SW 33/ 56  17.0  7.0  ------    0.0   0.0  ----   0.0   ----- 
Sun 13:00   SW 37/ 52  18.1  6.5  ------    0.0   0.0   0.0   0.0   ----- 
Sun 13:02   SW 33/ 52  17.8  6.4  ------    0.0   0.0  ----   0.0   ----- 
Sun 13:30   SW 28/ 54  18.9  6.3  ------    0.0   0.0   0.0   0.0   ----- 
Sun 14:00   SW 24/ 48  17.4  6.1  ------    0.0   0.0   0.0   0.0   ----- 
Sun 14:30   SW 28/ 45  17.9  7.0  ------    0.0   0.0   0.0   0.0   ----- 
Sun 15:00  WSW 24/ 37  18.6  6.4  ------    0.0   0.0   0.0   0.0   ----- 
Sun 15:15  WSW 28/ 50  19.0  7.8  ------    0.0   0.0   0.0   0.0   ----- 
Sun 15:30  WSW 30/ 48  18.0  7.6  ------    0.0   0.0   0.0   0.0   ----- 
Sun 16:00  WSW 24/ 37  17.3  7.2  ------    0.0   0.0   0.0   0.0   ----- 
Sun 16:30   NW 17/ 30  17.0  7.8  ------    0.0   0.0   0.0   0.0   ----- 

OUSE FIRE STATION

Site: 095048
Alt: 90.0m
44km NW of NEW NORFOLK


  Time     Wind        Temp  DP   Baro     Rain since   Rain past  Vis(m), Cloud(base in m), Weather
  local        km/h                         9am  last   hr   10m    
Sun 11:00  WSW 13/ 20  15.5  8.7  1001.9    0.0   0.0   0.0   0.0   ----- 
Sun 11:30   SW 20/ 30  16.4  7.3  1001.7    0.0   0.0   0.0   0.0   ----- 
Sun 12:00   SW 22/ 39  17.0  7.4  1001.7    0.0   0.0   0.0   0.0   ----- 
Sun 12:30   SW 20/ 35  17.0  7.9  1002.3    0.0   0.0   0.0   0.0   ----- 
Sun 12:36  WSW 28/ 46  17.1  7.2  1002.5    0.0   0.0  ----   0.0   ----- 
Sun 13:00   SW 24/ 43  16.7  5.6  1002.7    0.0   0.0   0.0   0.0   ----- 
Sun 13:30  WSW 33/ 45  18.6  7.7  1003.2    0.0   0.0   0.0   0.0   ----- 
Sun 14:00   SW 26/ 45  18.0  7.1  1003.7    0.0   0.0   0.0   0.0   ----- 
Sun 14:30    W 26/ 46  18.2  7.9  1004.4    0.0   0.0   0.0   0.0   ----- 
Sun 14:31    W 28/ 46  18.4  8.1  1004.4    0.0   0.0  ----   0.0   ----- 
Sun 15:00  WSW 32/ 46  17.5  7.3  1005.4    0.0   0.0   0.0   0.0   ----- 
Sun 15:05  WSW 28/ 46  17.9  7.3  1005.5    0.0   0.0  ----   0.0   ----- 
Sun 15:30  WSW 28/ 43  16.6  7.5  1006.3    0.0   0.0   0.0   0.0   ----- 
Sun 16:00    W 26/ 39  16.3  7.3  1007.0    0.0   0.0   0.0   0.0   ----- 
Sun 16:30    W 17/ 32  16.3  7.8  1007.4    0.0   0.0   0.0   0.0   -----